createdAt,value
2022-10-06T00:03:16.640Z,14.27
2022-10-06T00:08:17.448Z,14.69
2022-10-06T00:13:18.178Z,14.76
2022-10-06T00:18:20.463Z,14.67
2022-10-06T00:23:21.322Z,15.00
2022-10-06T00:28:22.232Z,15.66
2022-10-06T00:33:25.106Z,15.94
2022-10-06T00:38:26.511Z,16.04
2022-10-06T00:43:50.347Z,16.11
2022-10-06T00:48:56.823Z,16.18
2022-10-06T00:53:58.559Z,16.01
2022-10-06T00:59:00.078Z,15.87
2022-10-06T01:04:08.429Z,15.68
2022-10-06T01:09:09.255Z,15.84
2022-10-06T01:14:10.317Z,15.61
2022-10-06T01:19:21.726Z,15.31
2022-10-06T01:24:24.099Z,15.31
2022-10-06T01:29:25.921Z,15.24
2022-10-06T01:34:28.105Z,15.08
2022-10-06T01:39:30.275Z,14.64
2022-10-06T01:44:31.058Z,14.46
2022-10-06T01:49:31.900Z,14.30
2022-10-06T01:54:34.424Z,14.16
2022-10-06T01:59:35.622Z,14.04
2022-10-06T02:04:36.469Z,13.85
2022-10-06T02:09:38.706Z,13.74
2022-10-06T02:14:39.894Z,13.65
2022-10-06T02:19:40.679Z,13.51
2022-10-06T02:24:42.800Z,13.39
2022-10-06T02:29:44.721Z,13.27
2022-10-06T02:34:45.544Z,13.05
2022-10-06T02:39:47.746Z,12.85
2022-10-06T02:44:49.324Z,12.94
2022-10-06T02:49:51.586Z,12.88
2022-10-06T02:54:53.764Z,12.90
2022-10-06T02:59:54.727Z,12.90
2022-10-06T03:04:55.536Z,12.73
2022-10-06T03:09:57.784Z,12.78
2022-10-06T03:14:59.958Z,12.83
2022-10-06T03:20:00.814Z,13.03
2022-10-06T03:25:03.994Z,13.61
2022-10-06T03:30:06.573Z,13.66
2022-10-06T03:35:10.222Z,13.96
2022-10-06T03:40:13.177Z,14.28
2022-10-06T03:45:14.854Z,14.52
2022-10-06T03:50:15.985Z,14.42
2022-10-06T03:55:18.184Z,14.14
2022-10-06T04:00:19.001Z,13.98
2022-10-06T04:05:20.486Z,13.79
2022-10-06T04:10:22.863Z,13.79
2022-10-06T04:15:23.690Z,13.83
2022-10-06T04:20:24.758Z,13.60
2022-10-06T04:25:27.069Z,13.56
2022-10-06T04:30:28.913Z,13.52
2022-10-06T04:35:29.826Z,13.52
2022-10-06T04:40:32.256Z,13.52
2022-10-06T04:45:33.242Z,13.30
2022-10-06T04:50:34.284Z,13.29
2022-10-06T04:55:42.396Z,13.37
2022-10-06T05:00:43.345Z,13.53
2022-10-06T05:05:44.364Z,13.69
2022-10-06T05:10:46.571Z,13.72
2022-10-06T05:15:56.696Z,13.77
2022-10-06T05:21:01.065Z,13.79
2022-10-06T05:26:08.988Z,13.93
2022-10-06T05:31:13.217Z,14.40
2022-10-06T05:36:16.207Z,15.25
2022-10-06T05:41:21.044Z,15.83
2022-10-06T05:46:25.062Z,16.17
2022-10-06T05:51:30.866Z,16.37
2022-10-06T05:56:36.661Z,16.54
2022-10-06T06:01:40.010Z,16.62
2022-10-06T06:06:49.216Z,16.70
2022-10-06T06:11:55.452Z,16.65
2022-10-06T06:17:05.381Z,16.57
2022-10-06T06:22:06.374Z,16.01
2022-10-06T06:27:11.000Z,15.74
2022-10-06T06:32:13.506Z,14.63
2022-10-06T06:37:15.494Z,13.79
2022-10-06T06:42:20.577Z,13.20
2022-10-06T06:47:24.388Z,12.83
2022-10-06T06:52:27.019Z,12.47
2022-10-06T06:57:29.718Z,12.06
2022-10-06T07:02:32.334Z,11.88
2022-10-06T07:07:34.154Z,11.76
2022-10-06T07:12:36.580Z,11.76
2022-10-06T07:17:56.032Z,11.75
2022-10-06T07:23:14.751Z,11.72
2022-10-06T07:28:17.901Z,11.70
2022-10-06T07:33:19.002Z,11.69
2022-10-06T07:38:25.723Z,11.69
2022-10-06T07:43:29.231Z,11.67
2022-10-06T07:48:30.717Z,11.78
2022-10-06T07:53:35.584Z,11.91
2022-10-06T07:58:44.211Z,12.13
2022-10-06T08:03:48.492Z,12.25
2022-10-06T08:08:52.843Z,12.24
2022-10-06T08:13:55.415Z,12.27
2022-10-06T08:18:57.526Z,12.39
2022-10-06T08:23:59.914Z,12.73
2022-10-06T08:29:03.390Z,13.05
2022-10-06T08:34:07.605Z,13.36
2022-10-06T08:39:10.814Z,13.62
2022-10-06T08:44:30.339Z,13.41
2022-10-06T08:49:38.456Z,13.78
2022-10-06T08:54:44.056Z,13.77
2022-10-06T08:59:49.104Z,13.96
2022-10-06T09:04:51.201Z,13.93
2022-10-06T09:10:04.430Z,14.21
2022-10-06T09:15:21.095Z,14.18
2022-10-06T09:20:31.102Z,14.43
2022-10-06T09:25:32.065Z,14.94
2022-10-06T09:30:34.229Z,15.22
2022-10-06T09:35:37.092Z,15.00
2022-10-06T09:40:41.979Z,15.07
2022-10-06T09:45:44.097Z,15.35
2022-10-06T09:50:44.871Z,15.48
2022-10-06T09:55:54.617Z,15.45
2022-10-06T10:01:00.176Z,15.19
2022-10-06T10:06:02.294Z,15.25
2022-10-06T10:11:36.119Z,15.35
2022-10-06T10:16:38.334Z,15.96
2022-10-06T10:21:39.926Z,16.17
2022-10-06T10:26:48.798Z,15.79
2022-10-06T10:32:04.809Z,15.46
2022-10-06T10:37:10.087Z,15.78
2022-10-06T10:42:16.603Z,16.02
2022-10-06T10:47:25.843Z,15.88
2022-10-06T10:52:33.266Z,15.87
2022-10-06T10:57:39.940Z,15.75
2022-10-06T11:02:42.153Z,15.75
2022-10-06T11:07:50.212Z,15.96
2022-10-06T11:13:05.930Z,15.80
2022-10-06T11:18:21.312Z,15.60
2022-10-06T11:23:33.570Z,15.46
2022-10-06T11:28:43.175Z,15.52
2022-10-06T11:33:49.749Z,15.48
2022-10-06T11:38:57.550Z,15.41
2022-10-06T11:44:04.488Z,15.72
2022-10-06T11:49:43.330Z,15.89
2022-10-06T11:54:51.276Z,16.01
2022-10-06T11:59:53.878Z,16.61
2022-10-06T12:05:55.441Z,16.62
2022-10-06T12:10:51.675Z,16.51
2022-10-06T12:21:46.050Z,16.75
2022-10-06T12:26:54.699Z,16.92
2022-10-06T12:32:03.152Z,16.80
2022-10-06T12:37:34.477Z,16.68
2022-10-06T12:42:36.697Z,16.91
2022-10-06T12:47:41.705Z,17.11
2022-10-06T12:52:48.099Z,17.31
2022-10-06T12:57:53.353Z,17.06
2022-10-06T13:02:57.688Z,16.77
2022-10-06T13:08:00.085Z,16.69
2022-10-06T13:13:02.672Z,16.80
2022-10-06T13:18:13.571Z,16.85
2022-10-06T13:23:27.033Z,16.83
2022-10-06T13:28:46.599Z,16.87
2022-10-06T13:33:51.905Z,16.78
2022-10-06T13:38:53.366Z,16.89
2022-10-06T13:43:58.869Z,16.85
2022-10-06T13:49:03.367Z,16.89
2022-10-06T13:54:18.793Z,16.90
2022-10-06T13:59:35.782Z,16.92
2022-10-06T14:04:38.936Z,17.01
2022-10-06T14:09:42.063Z,16.87
2022-10-06T14:14:48.960Z,16.80
2022-10-06T14:19:50.096Z,16.74
2022-10-06T14:24:52.368Z,16.82
2022-10-06T14:29:54.670Z,16.77
2022-10-06T14:34:55.583Z,16.73
2022-10-06T14:39:56.634Z,16.61
2022-10-06T14:44:59.255Z,16.58
2022-10-06T14:50:00.461Z,16.58
2022-10-06T14:55:01.576Z,16.60
2022-10-06T15:00:05.461Z,16.63
2022-10-06T15:05:07.145Z,16.54
2022-10-06T15:10:08.858Z,16.49
2022-10-06T15:15:16.994Z,16.39
2022-10-06T15:20:17.798Z,16.42
2022-10-06T15:25:32.579Z,16.28
2022-10-06T15:30:34.714Z,16.25
2022-10-06T15:35:35.468Z,16.01
2022-10-06T15:40:36.260Z,15.80
2022-10-06T15:45:38.332Z,15.83
2022-10-06T15:50:39.489Z,15.77
2022-10-06T15:55:40.642Z,15.63
2022-10-06T16:00:44.120Z,15.43
2022-10-06T16:05:50.026Z,15.21
2022-10-06T16:10:51.197Z,15.14
2022-10-06T16:15:55.447Z,15.01
2022-10-06T16:20:56.813Z,14.87
2022-10-06T16:25:57.559Z,14.72
2022-10-06T16:30:59.737Z,14.37
2022-10-06T16:36:00.621Z,14.14
2022-10-06T16:41:02.600Z,13.95
2022-10-06T16:46:06.722Z,13.77
2022-10-06T16:51:09.095Z,13.53
2022-10-06T16:56:13.690Z,13.22
2022-10-06T17:01:17.488Z,13.05
2022-10-06T17:06:19.108Z,12.81
2022-10-06T17:11:23.683Z,12.69
2022-10-06T17:16:30.974Z,12.59
2022-10-06T17:21:45.484Z,12.42
2022-10-06T17:26:49.867Z,12.21
2022-10-06T17:31:59.919Z,12.04
2022-10-06T17:37:02.006Z,11.83
2022-10-06T17:42:03.880Z,11.68
2022-10-06T17:47:07.045Z,11.63
2022-10-06T17:52:07.817Z,11.43
2022-10-06T17:57:08.672Z,11.27
2022-10-06T18:02:13.468Z,11.14
2022-10-06T18:07:14.304Z,10.98
2022-10-06T18:12:15.102Z,10.81
2022-10-06T18:17:18.362Z,10.64
2022-10-06T18:22:19.373Z,10.53
2022-10-06T18:27:20.558Z,10.52
2022-10-06T18:37:43.766Z,10.22
2022-10-06T18:42:44.795Z,10.25
2022-10-06T18:48:04.508Z,10.19
2022-10-06T18:53:05.351Z,10.13
2022-10-06T18:58:06.391Z,10.04
2022-10-06T19:03:08.568Z,10.01
2022-10-06T19:08:09.447Z,10.02
2022-10-06T19:13:10.178Z,10.01
2022-10-06T19:18:12.315Z,9.96
2022-10-06T19:23:14.345Z,9.93
2022-10-06T19:28:15.770Z,9.84
2022-10-06T19:33:18.016Z,9.81
2022-10-06T19:38:18.884Z,9.64
2022-10-06T19:43:19.742Z,9.65
2022-10-06T19:48:21.955Z,9.58
2022-10-06T19:53:22.787Z,9.57
2022-10-06T19:58:23.582Z,9.48
2022-10-06T20:03:26.066Z,9.44
2022-10-06T20:08:27.272Z,9.35
2022-10-06T20:13:28.098Z,9.27
2022-10-06T20:18:30.356Z,9.18
2022-10-06T20:23:32.822Z,9.08
2022-10-06T20:28:34.658Z,9.00
2022-10-06T20:33:36.822Z,9.00
2022-10-06T20:38:55.020Z,8.96
2022-10-06T20:43:57.175Z,8.89
2022-10-06T20:49:05.056Z,8.81
2022-10-06T20:54:07.292Z,8.69
2022-10-06T20:59:08.861Z,8.65
2022-10-06T21:04:11.429Z,8.57
2022-10-06T21:09:14.709Z,8.48
2022-10-06T21:14:16.026Z,8.43
2022-10-06T21:19:19.983Z,8.37
2022-10-06T21:24:21.433Z,8.34
2022-10-06T21:29:22.586Z,8.33
2022-10-06T21:34:24.929Z,8.22
2022-10-06T21:39:25.859Z,8.12
2022-10-06T21:44:26.775Z,8.07
2022-10-06T21:49:29.171Z,8.00
2022-10-06T21:54:30.318Z,8.00
2022-10-06T21:59:31.341Z,7.95
2022-10-06T22:04:33.600Z,7.98
2022-10-06T22:09:39.246Z,7.97
2022-10-06T22:14:40.400Z,7.94
2022-10-06T22:19:42.645Z,7.89
2022-10-06T22:24:43.610Z,7.83
2022-10-06T22:29:44.557Z,7.73
2022-10-06T22:34:46.824Z,7.73
2022-10-06T22:39:47.706Z,7.65
2022-10-06T22:44:48.580Z,7.61
2022-10-06T22:49:50.789Z,7.60
2022-10-06T22:54:51.639Z,7.55
2022-10-06T22:59:52.732Z,7.50
2022-10-06T23:04:54.960Z,7.48
2022-10-06T23:09:55.835Z,7.41
2022-10-06T23:14:56.704Z,7.38
2022-10-06T23:19:59.001Z,7.36
2022-10-06T23:25:00.004Z,7.30
2022-10-06T23:30:00.924Z,7.26
2022-10-06T23:35:03.177Z,7.15
2022-10-06T23:40:04.679Z,7.14
2022-10-06T23:45:07.775Z,7.04
2022-10-06T23:50:10.637Z,6.99
2022-10-06T23:55:11.499Z,6.98
